createdAt,value
2022-11-02T00:01:29.809Z,4.80
2022-11-02T00:04:15.575Z,4.65
2022-11-02T00:07:00.922Z,5.55
2022-11-02T00:09:46.882Z,5.60
2022-11-02T00:12:32.569Z,6.07
2022-11-02T00:15:18.928Z,6.60
2022-11-02T00:18:09.195Z,5.93
2022-11-02T00:20:56.422Z,6.10
2022-11-02T00:23:42.551Z,5.35
2022-11-02T00:26:28.901Z,5.57
2022-11-02T00:29:14.631Z,5.35
2022-11-02T00:32:00.900Z,5.53
2022-11-02T00:34:46.216Z,5.47
2022-11-02T00:40:18.844Z,5.53
2022-11-02T00:43:06.364Z,5.18
2022-11-02T00:45:51.658Z,5.43
2022-11-02T00:48:37.113Z,5.30
2022-11-02T00:51:22.685Z,5.00
2022-11-02T00:54:08.395Z,4.75
2022-11-02T00:56:53.592Z,5.45
2022-11-02T00:59:39.098Z,4.88
2022-11-02T01:02:24.584Z,5.60
2022-11-02T01:05:10.864Z,5.57
2022-11-02T01:07:57.141Z,5.05
2022-11-02T01:10:45.542Z,5.28
2022-11-02T01:13:33.539Z,5.15
2022-11-02T01:16:19.548Z,5.13
2022-11-02T01:19:05.062Z,4.57
2022-11-02T01:21:50.888Z,5.07
2022-11-02T01:24:36.696Z,5.05
2022-11-02T01:27:21.936Z,5.90
2022-11-02T01:30:08.223Z,5.22
2022-11-02T01:32:53.579Z,4.82
2022-11-02T01:35:38.971Z,5.15
2022-11-02T01:38:25.340Z,5.63
2022-11-02T01:41:12.499Z,5.60
2022-11-02T01:43:59.029Z,4.65
2022-11-02T01:46:46.859Z,5.25
2022-11-02T01:49:36.219Z,5.72
2022-11-02T01:52:31.229Z,5.40
2022-11-02T01:55:21.196Z,5.70
2022-11-02T01:58:11.859Z,5.35
2022-11-02T02:00:57.622Z,5.38
2022-11-02T02:03:43.894Z,5.32
2022-11-02T02:06:30.027Z,5.47
2022-11-02T02:09:15.911Z,5.55
2022-11-02T02:12:01.891Z,5.60
2022-11-02T02:14:49.922Z,4.65
2022-11-02T02:17:47.841Z,5.15
2022-11-02T02:21:02.912Z,4.82
2022-11-02T02:24:09.747Z,4.65
2022-11-02T02:27:05.350Z,4.90
2022-11-02T02:30:09.790Z,4.78
2022-11-02T02:33:05.580Z,5.03
2022-11-02T02:36:20.505Z,5.65
2022-11-02T02:39:36.511Z,5.55
2022-11-02T02:42:47.935Z,5.50
2022-11-02T02:46:09.263Z,5.43
2022-11-02T02:48:56.977Z,4.75
2022-11-02T02:51:44.385Z,5.45
2022-11-02T02:54:38.771Z,4.35
2022-11-02T02:57:27.761Z,4.82
2022-11-02T03:00:17.860Z,4.75
2022-11-02T03:03:05.518Z,4.82
2022-11-02T03:05:59.295Z,4.45
2022-11-02T03:09:02.861Z,4.40
2022-11-02T03:12:06.671Z,5.63
2022-11-02T03:15:13.409Z,4.97
2022-11-02T03:18:10.741Z,4.38
2022-11-02T03:21:28.060Z,4.50
2022-11-02T03:24:33.006Z,4.65
2022-11-02T03:30:32.375Z,4.55
2022-11-02T03:33:25.996Z,4.20
2022-11-02T03:36:18.981Z,4.60
2022-11-02T03:39:08.625Z,5.00
2022-11-02T03:41:56.002Z,4.22
2022-11-02T03:44:42.103Z,4.10
2022-11-02T03:47:31.118Z,3.95
2022-11-02T03:50:21.641Z,4.43
2022-11-02T03:53:12.373Z,4.25
2022-11-02T03:56:04.166Z,3.95
2022-11-02T03:58:49.540Z,4.65
2022-11-02T04:01:44.874Z,4.82
2022-11-02T04:04:30.657Z,4.05
2022-11-02T04:07:22.280Z,3.92
2022-11-02T04:10:07.715Z,4.38
2022-11-02T04:13:11.345Z,3.92
2022-11-02T04:15:56.662Z,4.15
2022-11-02T04:19:01.800Z,4.72
2022-11-02T04:22:05.818Z,3.95
2022-11-02T04:25:10.135Z,4.10
2022-11-02T04:27:55.465Z,3.67
2022-11-02T04:30:40.639Z,3.70
2022-11-02T04:33:32.944Z,4.03
2022-11-02T04:36:18.198Z,4.88
2022-11-02T04:39:03.734Z,4.40
2022-11-02T04:41:49.181Z,4.00
2022-11-02T04:44:34.715Z,4.47
2022-11-02T04:47:20.174Z,4.05
2022-11-02T04:50:06.210Z,4.80
2022-11-02T04:52:56.367Z,4.18
2022-11-02T04:55:41.839Z,3.80
2022-11-02T04:58:27.539Z,4.30
2022-11-02T05:01:15.450Z,4.40
2022-11-02T05:04:00.711Z,4.65
2022-11-02T05:06:46.208Z,4.55
2022-11-02T05:09:31.806Z,6.45
2022-11-02T05:12:17.462Z,7.13
2022-11-02T05:15:04.841Z,5.10
2022-11-02T05:17:50.272Z,4.10
2022-11-02T05:20:35.436Z,4.88
2022-11-02T05:23:22.491Z,4.45
2022-11-02T05:26:11.983Z,4.78
2022-11-02T05:28:57.650Z,4.78
2022-11-02T05:31:42.882Z,5.13
2022-11-02T05:34:28.345Z,4.65
2022-11-02T05:37:14.092Z,4.47
2022-11-02T05:39:59.681Z,4.15
2022-11-02T05:42:45.175Z,4.80
2022-11-02T05:45:31.187Z,4.43
2022-11-02T05:48:16.598Z,5.55
2022-11-02T05:51:04.783Z,5.70
2022-11-02T05:53:50.378Z,5.43
2022-11-02T05:56:36.033Z,5.82
2022-11-02T05:59:21.368Z,5.32
2022-11-02T06:02:06.683Z,5.30
2022-11-02T06:04:52.415Z,5.30
2022-11-02T06:07:37.659Z,4.28
2022-11-02T06:10:23.211Z,4.60
2022-11-02T06:13:08.696Z,5.35
2022-11-02T06:15:54.156Z,4.38
2022-11-02T06:18:39.589Z,4.72
2022-11-02T06:21:24.845Z,4.90
2022-11-02T06:24:10.175Z,4.65
2022-11-02T06:26:55.784Z,4.07
2022-11-02T06:29:41.635Z,4.70
2022-11-02T06:32:26.954Z,4.70
2022-11-02T06:35:13.255Z,4.38
2022-11-02T06:37:59.013Z,4.35
2022-11-02T06:40:52.883Z,4.38
2022-11-02T06:43:38.605Z,5.15
2022-11-02T06:46:23.752Z,4.07
2022-11-02T06:49:09.284Z,3.80
2022-11-02T06:51:54.847Z,3.70
2022-11-02T06:54:40.242Z,3.67
2022-11-02T06:57:25.883Z,3.03
2022-11-02T07:00:21.117Z,3.33
2022-11-02T07:03:10.893Z,2.92
2022-11-02T07:05:56.275Z,2.70
2022-11-02T07:08:42.569Z,2.90
2022-11-02T07:11:28.030Z,3.00
2022-11-02T07:14:13.532Z,3.22
2022-11-02T07:16:59.154Z,2.70
2022-11-02T07:19:44.724Z,3.53
2022-11-02T07:22:30.127Z,3.13
2022-11-02T07:25:15.742Z,3.42
2022-11-02T07:28:02.411Z,3.28
2022-11-02T07:30:47.998Z,3.50
2022-11-02T07:33:33.511Z,3.33
2022-11-02T07:36:19.187Z,3.92
2022-11-02T07:39:05.488Z,3.88
2022-11-02T07:41:52.041Z,3.33
2022-11-02T07:44:37.854Z,2.90
2022-11-02T07:47:23.813Z,3.00
2022-11-02T07:50:09.489Z,2.97
2022-11-02T07:52:57.318Z,2.85
2022-11-02T07:55:42.864Z,2.90
2022-11-02T07:58:28.170Z,2.50
2022-11-02T08:01:13.804Z,2.90
2022-11-02T08:03:59.292Z,3.35
2022-11-02T08:06:44.732Z,2.50
2022-11-02T08:09:30.363Z,2.70
2022-11-02T08:12:15.771Z,2.50
2022-11-02T08:15:06.354Z,2.65
2022-11-02T08:18:12.684Z,2.67
2022-11-02T08:20:58.981Z,2.63
2022-11-02T08:23:44.252Z,2.60
2022-11-02T08:26:29.856Z,2.45
2022-11-02T08:29:15.323Z,2.17
2022-11-02T08:32:00.809Z,2.95
2022-11-02T08:34:46.410Z,2.97
2022-11-02T08:37:31.745Z,3.38
2022-11-02T08:40:17.212Z,3.90
2022-11-02T08:43:05.239Z,4.07
2022-11-02T08:48:56.112Z,4.53
2022-11-02T08:51:41.675Z,4.63
2022-11-02T08:54:27.240Z,4.53
2022-11-02T08:57:12.580Z,3.95
2022-11-02T08:59:58.149Z,4.00
2022-11-02T09:02:44.196Z,3.05
2022-11-02T09:05:35.730Z,2.85
2022-11-02T09:08:21.294Z,2.90
2022-11-02T09:11:06.958Z,3.30
2022-11-02T09:13:56.688Z,2.90
2022-11-02T09:16:42.515Z,3.08
2022-11-02T09:19:28.092Z,3.08
2022-11-02T09:22:13.710Z,2.72
2022-11-02T09:24:59.308Z,2.17
2022-11-02T09:27:44.702Z,2.00
2022-11-02T09:30:30.246Z,2.00
2022-11-02T09:33:16.015Z,2.53
2022-11-02T09:36:05.967Z,3.58
2022-11-02T09:38:51.430Z,3.03
2022-11-02T09:41:51.089Z,1.80
2022-11-02T09:44:49.687Z,2.28
2022-11-02T09:48:25.160Z,2.40
2022-11-02T09:51:44.618Z,2.17
2022-11-02T09:54:36.908Z,2.28
2022-11-02T09:57:33.630Z,2.20
2022-11-02T10:00:18.885Z,2.05
2022-11-02T10:03:20.181Z,1.60
2022-11-02T10:06:19.321Z,1.70
2022-11-02T10:09:21.191Z,2.00
2022-11-02T10:12:17.048Z,2.22
2022-11-02T10:15:05.591Z,2.38
2022-11-02T10:17:57.525Z,1.90
2022-11-02T10:20:46.396Z,1.60
2022-11-02T10:23:53.319Z,2.08
2022-11-02T10:26:43.384Z,2.13
2022-11-02T10:30:07.767Z,1.70
2022-11-02T10:32:55.891Z,1.77
2022-11-02T10:36:12.430Z,1.88
2022-11-02T10:39:13.698Z,1.63
2022-11-02T10:42:19.163Z,1.77
2022-11-02T10:45:07.192Z,2.13
2022-11-02T10:47:57.927Z,1.65
2022-11-02T10:51:12.178Z,2.28
2022-11-02T10:53:57.857Z,1.90
2022-11-02T10:56:46.973Z,1.90
2022-11-02T10:59:32.267Z,1.83
2022-11-02T11:02:18.270Z,2.13
2022-11-02T11:05:16.145Z,2.45
2022-11-02T11:08:01.966Z,3.08
2022-11-02T11:10:47.753Z,1.88
2022-11-02T11:16:51.311Z,1.80
2022-11-02T11:19:41.678Z,1.70
2022-11-02T11:22:35.623Z,1.92
2022-11-02T11:25:28.208Z,1.35
2022-11-02T11:28:29.992Z,1.55
2022-11-02T11:31:17.318Z,1.50
2022-11-02T11:34:02.864Z,1.60
2022-11-02T11:36:48.565Z,1.58
2022-11-02T11:39:35.448Z,1.50
2022-11-02T11:42:24.650Z,1.40
2022-11-02T11:45:22.022Z,2.30
2022-11-02T11:48:35.156Z,1.20
2022-11-02T11:51:37.802Z,1.33
2022-11-02T11:57:26.149Z,1.38
2022-11-02T12:00:28.940Z,1.92
2022-11-02T12:03:14.488Z,1.40
2022-11-02T12:06:13.925Z,1.40
2022-11-02T12:09:05.159Z,1.40
2022-11-02T12:12:16.806Z,1.52
2022-11-02T12:15:08.364Z,1.40
2022-11-02T12:18:13.496Z,1.50
2022-11-02T12:23:58.966Z,1.77
2022-11-02T12:27:01.651Z,1.20
2022-11-02T12:30:04.390Z,1.17
2022-11-02T12:33:08.387Z,1.80
2022-11-02T12:36:02.776Z,1.48
2022-11-02T12:39:16.786Z,1.33
2022-11-02T12:42:23.770Z,1.33
2022-11-02T12:45:57.007Z,1.33
2022-11-02T12:49:00.218Z,1.50
2022-11-02T12:51:48.561Z,1.52
2022-11-02T12:54:41.846Z,1.40
2022-11-02T12:57:31.729Z,1.35
2022-11-02T13:00:22.639Z,1.80
2022-11-02T13:03:28.237Z,1.45
2022-11-02T13:06:17.319Z,1.50
2022-11-02T13:09:11.472Z,1.40
2022-11-02T13:12:05.940Z,1.58
2022-11-02T13:14:55.461Z,1.33
2022-11-02T13:17:45.200Z,1.85
2022-11-02T13:20:39.896Z,1.55
2022-11-02T13:23:36.203Z,1.60
2022-11-02T13:26:37.785Z,1.20
2022-11-02T13:29:26.066Z,1.85
2022-11-02T13:32:25.602Z,1.52
2022-11-02T13:35:27.492Z,1.65
2022-11-02T13:38:12.735Z,1.60
2022-11-02T13:41:13.916Z,1.55
2022-11-02T13:44:19.356Z,1.30
2022-11-02T13:47:32.737Z,1.35
2022-11-02T13:50:21.687Z,1.67
2022-11-02T13:53:12.256Z,1.50
2022-11-02T13:56:01.631Z,1.50
2022-11-02T13:58:50.690Z,1.80
2022-11-02T14:01:40.969Z,1.65
2022-11-02T14:04:26.822Z,1.50
2022-11-02T14:07:34.198Z,1.70
2022-11-02T14:10:20.472Z,1.35
2022-11-02T14:13:06.150Z,1.38
2022-11-02T14:15:53.319Z,1.30
2022-11-02T14:18:38.741Z,1.30
2022-11-02T14:21:50.714Z,1.33
2022-11-02T14:24:36.328Z,1.30
2022-11-02T14:27:31.197Z,1.35
2022-11-02T14:33:48.076Z,1.38
2022-11-02T14:36:54.863Z,2.03
2022-11-02T14:39:40.206Z,1.42
2022-11-02T14:42:58.346Z,1.52
2022-11-02T14:45:46.438Z,1.67
2022-11-02T14:48:42.715Z,1.30
2022-11-02T14:51:37.498Z,1.30
2022-11-02T14:54:22.919Z,1.35
2022-11-02T14:57:24.724Z,1.17
2022-11-02T15:00:22.212Z,1.50
2022-11-02T15:03:34.309Z,1.60
2022-11-02T15:06:25.555Z,1.52
2022-11-02T15:09:11.052Z,1.30
2022-11-02T15:12:00.390Z,1.35
2022-11-02T15:14:45.785Z,1.80
2022-11-02T15:17:31.211Z,2.20
2022-11-02T15:20:16.632Z,1.40
2022-11-02T15:23:16.275Z,1.75
2022-11-02T15:29:01.278Z,1.63
2022-11-02T15:31:54.471Z,1.60
2022-11-02T15:34:44.291Z,2.88
2022-11-02T15:37:40.883Z,1.52
2022-11-02T15:40:48.736Z,1.52
2022-11-02T15:43:46.789Z,1.67
2022-11-02T15:46:50.477Z,1.60
2022-11-02T15:50:02.424Z,1.40
2022-11-02T15:56:27.691Z,1.50
2022-11-02T15:59:31.209Z,1.52
2022-11-02T16:02:24.647Z,1.30
2022-11-02T16:05:24.409Z,1.30
2022-11-02T16:08:23.950Z,1.40
2022-11-02T16:11:17.940Z,1.73
2022-11-02T16:14:18.921Z,2.08
2022-11-02T16:17:04.561Z,1.60
2022-11-02T16:19:50.235Z,1.60
2022-11-02T16:22:36.872Z,1.88
2022-11-02T16:25:33.836Z,1.75
2022-11-02T16:28:33.404Z,1.50
2022-11-02T16:31:21.133Z,1.40
2022-11-02T16:34:22.623Z,1.75
2022-11-02T16:37:13.255Z,1.80
2022-11-02T16:39:59.239Z,1.90
2022-11-02T16:42:47.206Z,2.55
2022-11-02T16:45:42.075Z,2.53
2022-11-02T16:48:32.817Z,2.30
2022-11-02T16:51:19.019Z,2.53
2022-11-02T16:54:38.472Z,2.50
2022-11-02T16:57:33.989Z,2.63
2022-11-02T17:00:20.476Z,2.20
2022-11-02T17:03:14.134Z,2.40
2022-11-02T17:06:04.628Z,2.30
2022-11-02T17:08:55.269Z,2.20
2022-11-02T17:11:43.157Z,2.40
2022-11-02T17:14:29.209Z,2.70
2022-11-02T17:17:24.102Z,3.33
2022-11-02T17:23:08.839Z,2.75
2022-11-02T17:26:23.508Z,2.40
2022-11-02T17:29:27.282Z,3.05
2022-11-02T17:32:16.400Z,3.33
2022-11-02T17:35:02.720Z,3.35
2022-11-02T17:37:49.160Z,2.55
2022-11-02T17:40:34.754Z,2.83
2022-11-02T17:43:21.919Z,2.45
2022-11-02T17:46:08.742Z,2.42
2022-11-02T17:48:53.887Z,2.38
2022-11-02T17:51:40.525Z,2.58
2022-11-02T17:54:25.998Z,2.83
2022-11-02T17:57:15.683Z,2.97
2022-11-02T18:00:01.350Z,2.95
2022-11-02T18:02:51.868Z,3.13
2022-11-02T18:05:38.082Z,3.25
2022-11-02T18:08:23.604Z,3.15
2022-11-02T18:11:09.378Z,3.25
2022-11-02T18:13:54.766Z,3.00
2022-11-02T18:16:40.373Z,3.28
2022-11-02T18:19:25.958Z,2.97
2022-11-02T18:22:12.441Z,3.13
2022-11-02T18:24:57.740Z,2.80
2022-11-02T18:27:44.304Z,3.13
2022-11-02T18:30:29.984Z,2.80
2022-11-02T18:33:15.649Z,3.30
2022-11-02T18:36:06.046Z,2.92
2022-11-02T18:38:51.366Z,3.08
2022-11-02T18:41:37.576Z,3.30
2022-11-02T18:44:22.904Z,3.25
2022-11-02T18:47:08.999Z,2.90
2022-11-02T18:49:54.510Z,3.10
2022-11-02T18:52:40.412Z,3.42
2022-11-02T18:55:25.642Z,2.85
2022-11-02T18:58:11.872Z,2.90
2022-11-02T19:01:14.369Z,2.80
2022-11-02T19:04:00.755Z,3.85
2022-11-02T19:07:04.917Z,4.03
2022-11-02T19:09:50.017Z,3.30
2022-11-02T19:12:35.458Z,3.50
2022-11-02T19:15:21.014Z,4.00
2022-11-02T19:18:06.552Z,3.80
2022-11-02T19:20:52.240Z,3.30
2022-11-02T19:23:37.490Z,3.75
2022-11-02T19:29:08.518Z,3.42
2022-11-02T19:31:54.306Z,3.45
2022-11-02T19:34:40.342Z,4.28
2022-11-02T19:37:26.017Z,3.70
2022-11-02T19:40:11.937Z,4.55
2022-11-02T19:42:57.517Z,4.10
2022-11-02T19:45:42.996Z,4.00
2022-11-02T19:48:30.386Z,3.83
2022-11-02T19:51:22.056Z,3.80
2022-11-02T19:54:07.628Z,3.92
2022-11-02T19:56:53.119Z,4.05
2022-11-02T19:59:38.878Z,4.00
2022-11-02T20:02:24.493Z,3.88
2022-11-02T20:05:11.299Z,4.22
2022-11-02T20:07:56.581Z,3.95
2022-11-02T20:10:43.062Z,3.85
2022-11-02T20:13:28.428Z,3.10
2022-11-02T20:16:16.698Z,3.97
2022-11-02T20:19:02.137Z,4.13
2022-11-02T20:21:47.574Z,4.45
2022-11-02T20:24:32.815Z,3.92
2022-11-02T20:27:18.456Z,4.10
2022-11-02T20:30:05.447Z,4.30
2022-11-02T20:32:50.980Z,4.97
2022-11-02T20:35:38.306Z,4.28
2022-11-02T20:38:24.879Z,4.63
2022-11-02T20:41:14.612Z,4.47
2022-11-02T20:43:59.934Z,5.10
2022-11-02T20:46:52.751Z,4.50
2022-11-02T20:49:54.449Z,5.15
2022-11-02T20:52:40.024Z,4.18
2022-11-02T20:55:25.954Z,5.00
2022-11-02T20:58:11.549Z,3.83
2022-11-02T21:00:57.559Z,4.90
2022-11-02T21:03:43.599Z,5.30
2022-11-02T21:06:29.603Z,4.88
2022-11-02T21:09:15.186Z,5.07
2022-11-02T21:12:19.323Z,5.10
2022-11-02T21:15:05.828Z,4.93
2022-11-02T21:17:51.204Z,5.38
2022-11-02T21:20:36.594Z,4.85
2022-11-02T21:23:21.984Z,4.90
2022-11-02T21:26:09.454Z,4.95
2022-11-02T21:28:55.005Z,5.60
2022-11-02T21:31:40.485Z,4.57
2022-11-02T21:34:26.054Z,4.57
2022-11-02T21:37:11.536Z,5.30
2022-11-02T21:39:57.152Z,5.32
2022-11-02T21:42:42.705Z,4.45
2022-11-02T21:45:30.185Z,5.00
2022-11-02T21:48:23.078Z,4.97
2022-11-02T21:51:10.821Z,5.60
2022-11-02T21:53:56.838Z,4.93
2022-11-02T21:56:43.213Z,4.80
2022-11-02T21:59:28.554Z,4.40
2022-11-02T22:02:14.328Z,5.20
2022-11-02T22:04:59.732Z,5.03
2022-11-02T22:08:03.793Z,4.97
2022-11-02T22:10:49.091Z,5.35
2022-11-02T22:13:35.658Z,5.57
2022-11-02T22:16:27.870Z,4.90
2022-11-02T22:19:15.298Z,4.97
2022-11-02T22:22:01.134Z,5.05
2022-11-02T22:24:46.863Z,5.07
2022-11-02T22:27:32.392Z,4.78
2022-11-02T22:30:17.672Z,4.93
2022-11-02T22:33:04.926Z,5.45
2022-11-02T22:35:50.390Z,5.15
2022-11-02T22:38:51.302Z,5.10
2022-11-02T22:41:37.952Z,4.88
2022-11-02T22:44:23.097Z,4.63
2022-11-02T22:47:08.658Z,4.57
2022-11-02T22:49:54.161Z,4.68
2022-11-02T22:52:39.734Z,4.88
2022-11-02T22:55:25.392Z,4.80
2022-11-02T22:58:11.085Z,5.68
2022-11-02T23:00:56.752Z,5.03
2022-11-02T23:03:42.572Z,5.47
2022-11-02T23:06:28.291Z,5.70
2022-11-02T23:09:13.785Z,5.22
2022-11-02T23:11:59.318Z,4.90
2022-11-02T23:14:44.832Z,5.07
2022-11-02T23:17:30.347Z,5.07
2022-11-02T23:20:16.065Z,4.75
2022-11-02T23:23:20.054Z,4.75
2022-11-02T23:26:05.437Z,5.07
2022-11-02T23:29:09.392Z,5.43
2022-11-02T23:32:13.187Z,5.05
2022-11-02T23:35:18.047Z,5.32
2022-11-02T23:38:05.533Z,5.03
2022-11-02T23:40:54.973Z,4.65
2022-11-02T23:43:40.464Z,5.13
2022-11-02T23:46:26.025Z,4.65
2022-11-02T23:49:12.543Z,5.03
2022-11-02T23:52:16.541Z,4.80
2022-11-02T23:55:20.367Z,4.22
2022-11-02T23:58:05.674Z,4.57
